sensor_id;sensor_type;location;lat;lon;timestamp;P1;durP1;ratioP1;P2;durP2;ratioP2
79712;SDS011;69206;51.420;5.400;2023-04-16T00:02:10;16.92;;;4.47;;
79712;SDS011;69206;51.420;5.400;2023-04-16T00:04:35;13.33;;;4.40;;
79712;SDS011;69206;51.420;5.400;2023-04-16T00:07:00;12.43;;;4.47;;
79712;SDS011;69206;51.420;5.400;2023-04-16T00:09:26;17.53;;;4.30;;
79712;SDS011;69206;51.420;5.400;2023-04-16T00:11:51;14.40;;;4.43;;
79712;SDS011;69206;51.420;5.400;2023-04-16T00:14:17;12.70;;;4.97;;
79712;SDS011;69206;51.420;5.400;2023-04-16T00:16:42;11.30;;;5.18;;
79712;SDS011;69206;51.420;5.400;2023-04-16T00:19:08;13.73;;;4.80;;
79712;SDS011;69206;51.420;5.400;2023-04-16T00:21:33;9.47;;;4.10;;
79712;SDS011;69206;51.420;5.400;2023-04-16T00:23:58;14.17;;;4.97;;
79712;SDS011;69206;51.420;5.400;2023-04-16T00:26:23;13.53;;;5.03;;
79712;SDS011;69206;51.420;5.400;2023-04-16T00:28:49;17.10;;;4.70;;
79712;SDS011;69206;51.420;5.400;2023-04-16T00:31:14;11.40;;;4.95;;
79712;SDS011;69206;51.420;5.400;2023-04-16T00:33:40;13.57;;;5.07;;
79712;SDS011;69206;51.420;5.400;2023-04-16T00:36:05;11.67;;;4.70;;
79712;SDS011;69206;51.420;5.400;2023-04-16T00:38:31;12.37;;;5.23;;
79712;SDS011;69206;51.420;5.400;2023-04-16T00:40:56;15.87;;;4.77;;
79712;SDS011;69206;51.420;5.400;2023-04-16T00:43:25;10.70;;;4.97;;
79712;SDS011;69206;51.420;5.400;2023-04-16T00:45:51;13.07;;;4.87;;
79712;SDS011;69206;51.420;5.400;2023-04-16T00:48:17;10.67;;;5.30;;
79712;SDS011;69206;51.420;5.400;2023-04-16T00:50:44;14.30;;;4.87;;
79712;SDS011;69206;51.420;5.400;2023-04-16T00:53:09;11.17;;;5.10;;
79712;SDS011;69206;51.420;5.400;2023-04-16T00:55:35;11.87;;;5.43;;
79712;SDS011;69206;51.420;5.400;2023-04-16T00:58:00;14.53;;;5.17;;
79712;SDS011;69206;51.420;5.400;2023-04-16T01:00:27;15.90;;;5.60;;
79712;SDS011;69206;51.420;5.400;2023-04-16T01:02:52;15.70;;;7.00;;
79712;SDS011;69206;51.420;5.400;2023-04-16T01:05:18;14.83;;;5.50;;
79712;SDS011;69206;51.420;5.400;2023-04-16T01:07:44;17.40;;;6.17;;
79712;SDS011;69206;51.420;5.400;2023-04-16T01:10:10;12.60;;;5.40;;
79712;SDS011;69206;51.420;5.400;2023-04-16T01:12:35;10.03;;;5.63;;
79712;SDS011;69206;51.420;5.400;2023-04-16T01:15:00;11.23;;;5.03;;
79712;SDS011;69206;51.420;5.400;2023-04-16T01:17:26;15.33;;;6.23;;
79712;SDS011;69206;51.420;5.400;2023-04-16T01:19:52;17.10;;;6.00;;
79712;SDS011;69206;51.420;5.400;2023-04-16T01:22:17;14.07;;;6.83;;
79712;SDS011;69206;51.420;5.400;2023-04-16T01:24:42;11.87;;;5.43;;
79712;SDS011;69206;51.420;5.400;2023-04-16T01:27:09;12.20;;;6.17;;
79712;SDS011;69206;51.420;5.400;2023-04-16T01:29:34;15.75;;;5.88;;
79712;SDS011;69206;51.420;5.400;2023-04-16T01:31:59;13.35;;;6.22;;
79712;SDS011;69206;51.420;5.400;2023-04-16T01:34:25;13.10;;;6.33;;
79712;SDS011;69206;51.420;5.400;2023-04-16T01:36:50;9.45;;;6.40;;
79712;SDS011;69206;51.420;5.400;2023-04-16T01:39:15;11.57;;;6.82;;
79712;SDS011;69206;51.420;5.400;2023-04-16T01:41:43;13.65;;;7.28;;
79712;SDS011;69206;51.420;5.400;2023-04-16T01:44:09;17.55;;;7.22;;
79712;SDS011;69206;51.420;5.400;2023-04-16T01:46:34;13.13;;;7.17;;
79712;SDS011;69206;51.420;5.400;2023-04-16T01:49:01;17.10;;;7.90;;
79712;SDS011;69206;51.420;5.400;2023-04-16T01:51:27;18.63;;;7.20;;
79712;SDS011;69206;51.420;5.400;2023-04-16T01:53:52;14.67;;;6.83;;
79712;SDS011;69206;51.420;5.400;2023-04-16T01:56:18;19.00;;;8.47;;
79712;SDS011;69206;51.420;5.400;2023-04-16T01:58:44;22.92;;;7.70;;
79712;SDS011;69206;51.420;5.400;2023-04-16T02:01:10;18.37;;;8.30;;
79712;SDS011;69206;51.420;5.400;2023-04-16T02:03:36;17.13;;;8.68;;
79712;SDS011;69206;51.420;5.400;2023-04-16T02:06:01;20.30;;;8.02;;
79712;SDS011;69206;51.420;5.400;2023-04-16T02:08:27;18.57;;;9.23;;
79712;SDS011;69206;51.420;5.400;2023-04-16T02:10:52;16.00;;;8.00;;
79712;SDS011;69206;51.420;5.400;2023-04-16T02:13:18;17.67;;;8.33;;
79712;SDS011;69206;51.420;5.400;2023-04-16T02:15:47;20.90;;;8.90;;
79712;SDS011;69206;51.420;5.400;2023-04-16T02:18:13;16.73;;;8.73;;
79712;SDS011;69206;51.420;5.400;2023-04-16T02:20:42;16.58;;;9.00;;
79712;SDS011;69206;51.420;5.400;2023-04-16T02:23:09;23.10;;;9.33;;
79712;SDS011;69206;51.420;5.400;2023-04-16T02:25:38;19.47;;;8.20;;
79712;SDS011;69206;51.420;5.400;2023-04-16T02:28:07;16.83;;;8.43;;
79712;SDS011;69206;51.420;5.400;2023-04-16T02:30:36;18.63;;;8.47;;
79712;SDS011;69206;51.420;5.400;2023-04-16T02:33:02;18.10;;;8.50;;
79712;SDS011;69206;51.420;5.400;2023-04-16T02:35:36;20.97;;;9.00;;
79712;SDS011;69206;51.420;5.400;2023-04-16T02:38:02;14.30;;;8.77;;
79712;SDS011;69206;51.420;5.400;2023-04-16T02:40:28;16.43;;;8.67;;
79712;SDS011;69206;51.420;5.400;2023-04-16T02:42:55;20.30;;;9.27;;
79712;SDS011;69206;51.420;5.400;2023-04-16T02:45:20;20.23;;;8.97;;
79712;SDS011;69206;51.420;5.400;2023-04-16T02:47:47;20.63;;;9.83;;
79712;SDS011;69206;51.420;5.400;2023-04-16T02:50:13;18.67;;;9.37;;
79712;SDS011;69206;51.420;5.400;2023-04-16T02:52:38;22.17;;;10.20;;
79712;SDS011;69206;51.420;5.400;2023-04-16T02:55:04;19.90;;;9.67;;
79712;SDS011;69206;51.420;5.400;2023-04-16T02:57:30;19.47;;;10.30;;
79712;SDS011;69206;51.420;5.400;2023-04-16T02:59:56;20.27;;;9.70;;
79712;SDS011;69206;51.420;5.400;2023-04-16T03:02:21;18.40;;;10.27;;
79712;SDS011;69206;51.420;5.400;2023-04-16T03:04:46;19.50;;;10.80;;
79712;SDS011;69206;51.420;5.400;2023-04-16T03:07:12;24.70;;;9.87;;
79712;SDS011;69206;51.420;5.400;2023-04-16T03:09:37;20.60;;;10.00;;
79712;SDS011;69206;51.420;5.400;2023-04-16T03:12:03;22.47;;;11.03;;
79712;SDS011;69206;51.420;5.400;2023-04-16T03:14:29;27.20;;;10.80;;
79712;SDS011;69206;51.420;5.400;2023-04-16T03:16:55;22.97;;;10.93;;
79712;SDS011;69206;51.420;5.400;2023-04-16T03:19:20;23.80;;;10.97;;
79712;SDS011;69206;51.420;5.400;2023-04-16T03:21:46;24.07;;;10.93;;
79712;SDS011;69206;51.420;5.400;2023-04-16T03:24:11;28.13;;;10.83;;
79712;SDS011;69206;51.420;5.400;2023-04-16T03:26:37;21.27;;;10.83;;
79712;SDS011;69206;51.420;5.400;2023-04-16T03:29:03;31.30;;;12.33;;
79712;SDS011;69206;51.420;5.400;2023-04-16T03:31:28;27.17;;;11.60;;
79712;SDS011;69206;51.420;5.400;2023-04-16T03:33:54;27.40;;;12.17;;
79712;SDS011;69206;51.420;5.400;2023-04-16T03:36:20;28.23;;;13.20;;
79712;SDS011;69206;51.420;5.400;2023-04-16T03:38:46;29.43;;;11.87;;
79712;SDS011;69206;51.420;5.400;2023-04-16T03:41:12;26.47;;;12.73;;
79712;SDS011;69206;51.420;5.400;2023-04-16T03:43:37;30.77;;;12.40;;
79712;SDS011;69206;51.420;5.400;2023-04-16T03:46:03;25.77;;;12.80;;
79712;SDS011;69206;51.420;5.400;2023-04-16T03:48:28;30.50;;;14.17;;
79712;SDS011;69206;51.420;5.400;2023-04-16T03:50:54;27.73;;;13.43;;
79712;SDS011;69206;51.420;5.400;2023-04-16T03:53:19;31.10;;;14.03;;
79712;SDS011;69206;51.420;5.400;2023-04-16T03:55:44;28.23;;;12.83;;
79712;SDS011;69206;51.420;5.400;2023-04-16T03:58:15;30.07;;;13.80;;
79712;SDS011;69206;51.420;5.400;2023-04-16T04:00:40;37.50;;;14.10;;
79712;SDS011;69206;51.420;5.400;2023-04-16T04:03:07;35.50;;;14.20;;
79712;SDS011;69206;51.420;5.400;2023-04-16T04:08:03;30.47;;;14.37;;
79712;SDS011;69206;51.420;5.400;2023-04-16T04:10:33;34.67;;;15.00;;
79712;SDS011;69206;51.420;5.400;2023-04-16T04:12:59;30.67;;;15.20;;
79712;SDS011;69206;51.420;5.400;2023-04-16T04:15:26;30.93;;;15.00;;
79712;SDS011;69206;51.420;5.400;2023-04-16T04:17:51;34.97;;;15.13;;
79712;SDS011;69206;51.420;5.400;2023-04-16T04:20:17;30.37;;;15.57;;
79712;SDS011;69206;51.420;5.400;2023-04-16T04:22:42;29.30;;;14.17;;
79712;SDS011;69206;51.420;5.400;2023-04-16T04:25:08;35.27;;;15.50;;
79712;SDS011;69206;51.420;5.400;2023-04-16T04:27:34;29.23;;;14.77;;
79712;SDS011;69206;51.420;5.400;2023-04-16T04:30:00;32.97;;;14.83;;
79712;SDS011;69206;51.420;5.400;2023-04-16T04:32:25;31.97;;;15.10;;
79712;SDS011;69206;51.420;5.400;2023-04-16T04:34:51;34.60;;;14.00;;
79712;SDS011;69206;51.420;5.400;2023-04-16T04:37:16;33.50;;;15.07;;
79712;SDS011;69206;51.420;5.400;2023-04-16T04:39:41;36.27;;;13.70;;
79712;SDS011;69206;51.420;5.400;2023-04-16T04:42:08;26.03;;;14.20;;
79712;SDS011;69206;51.420;5.400;2023-04-16T04:44:33;33.30;;;14.63;;
79712;SDS011;69206;51.420;5.400;2023-04-16T04:46:59;34.23;;;14.20;;
79712;SDS011;69206;51.420;5.400;2023-04-16T04:49:24;30.23;;;14.37;;
79712;SDS011;69206;51.420;5.400;2023-04-16T04:51:50;30.90;;;14.70;;
79712;SDS011;69206;51.420;5.400;2023-04-16T04:54:15;34.20;;;13.73;;
79712;SDS011;69206;51.420;5.400;2023-04-16T04:56:41;30.13;;;14.10;;
79712;SDS011;69206;51.420;5.400;2023-04-16T04:59:09;36.83;;;14.77;;
79712;SDS011;69206;51.420;5.400;2023-04-16T05:01:35;36.23;;;14.90;;
79712;SDS011;69206;51.420;5.400;2023-04-16T05:04:00;33.73;;;14.97;;
79712;SDS011;69206;51.420;5.400;2023-04-16T05:06:26;27.00;;;14.37;;
79712;SDS011;69206;51.420;5.400;2023-04-16T05:08:51;29.17;;;15.13;;
79712;SDS011;69206;51.420;5.400;2023-04-16T05:11:17;33.53;;;15.03;;
79712;SDS011;69206;51.420;5.400;2023-04-16T05:13:42;31.40;;;14.50;;
79712;SDS011;69206;51.420;5.400;2023-04-16T05:16:07;31.90;;;14.67;;
79712;SDS011;69206;51.420;5.400;2023-04-16T05:18:33;31.40;;;15.70;;
79712;SDS011;69206;51.420;5.400;2023-04-16T05:20:58;41.03;;;16.07;;
79712;SDS011;69206;51.420;5.400;2023-04-16T05:23:23;29.53;;;15.30;;
79712;SDS011;69206;51.420;5.400;2023-04-16T05:25:49;34.63;;;15.77;;
79712;SDS011;69206;51.420;5.400;2023-04-16T05:28:14;36.40;;;15.03;;
79712;SDS011;69206;51.420;5.400;2023-04-16T05:30:40;41.87;;;16.30;;
79712;SDS011;69206;51.420;5.400;2023-04-16T05:33:06;34.63;;;15.50;;
79712;SDS011;69206;51.420;5.400;2023-04-16T05:35:31;36.17;;;15.40;;
79712;SDS011;69206;51.420;5.400;2023-04-16T05:37:56;35.80;;;14.67;;
79712;SDS011;69206;51.420;5.400;2023-04-16T05:40:21;33.63;;;14.80;;
79712;SDS011;69206;51.420;5.400;2023-04-16T05:42:47;32.47;;;15.20;;
79712;SDS011;69206;51.420;5.400;2023-04-16T05:45:12;32.97;;;15.93;;
79712;SDS011;69206;51.420;5.400;2023-04-16T05:47:38;39.90;;;15.43;;
79712;SDS011;69206;51.420;5.400;2023-04-16T05:50:03;41.30;;;15.70;;
79712;SDS011;69206;51.420;5.400;2023-04-16T05:52:29;37.03;;;15.77;;
79712;SDS011;69206;51.420;5.400;2023-04-16T05:54:54;35.30;;;15.50;;
79712;SDS011;69206;51.420;5.400;2023-04-16T05:57:19;34.47;;;15.93;;
79712;SDS011;69206;51.420;5.400;2023-04-16T05:59:45;41.33;;;17.17;;
79712;SDS011;69206;51.420;5.400;2023-04-16T06:02:10;38.03;;;16.37;;
79712;SDS011;69206;51.420;5.400;2023-04-16T06:04:36;32.47;;;16.80;;
79712;SDS011;69206;51.420;5.400;2023-04-16T06:07:01;32.80;;;15.80;;
79712;SDS011;69206;51.420;5.400;2023-04-16T06:09:27;33.33;;;15.73;;
79712;SDS011;69206;51.420;5.400;2023-04-16T06:11:52;34.60;;;16.53;;
79712;SDS011;69206;51.420;5.400;2023-04-16T06:14:18;39.70;;;17.00;;
79712;SDS011;69206;51.420;5.400;2023-04-16T06:16:43;38.27;;;17.20;;
79712;SDS011;69206;51.420;5.400;2023-04-16T06:19:08;36.33;;;16.30;;
79712;SDS011;69206;51.420;5.400;2023-04-16T06:21:34;38.10;;;15.83;;
79712;SDS011;69206;51.420;5.400;2023-04-16T06:23:59;38.03;;;15.47;;
79712;SDS011;69206;51.420;5.400;2023-04-16T06:26:25;40.63;;;16.47;;
79712;SDS011;69206;51.420;5.400;2023-04-16T06:28:50;34.50;;;15.70;;
79712;SDS011;69206;51.420;5.400;2023-04-16T06:31:16;37.50;;;16.63;;
79712;SDS011;69206;51.420;5.400;2023-04-16T06:33:41;39.63;;;16.17;;
79712;SDS011;69206;51.420;5.400;2023-04-16T06:36:07;34.33;;;16.40;;
79712;SDS011;69206;51.420;5.400;2023-04-16T06:38:32;40.10;;;15.83;;
79712;SDS011;69206;51.420;5.400;2023-04-16T06:40:57;36.57;;;14.77;;
79712;SDS011;69206;51.420;5.400;2023-04-16T06:43:23;32.03;;;15.20;;
79712;SDS011;69206;51.420;5.400;2023-04-16T06:45:49;42.87;;;16.87;;
79712;SDS011;69206;51.420;5.400;2023-04-16T06:48:14;36.53;;;15.30;;
79712;SDS011;69206;51.420;5.400;2023-04-16T06:50:40;40.40;;;16.10;;
79712;SDS011;69206;51.420;5.400;2023-04-16T06:53:05;40.15;;;15.95;;
79712;SDS011;69206;51.420;5.400;2023-04-16T06:55:31;39.30;;;16.30;;
79712;SDS011;69206;51.420;5.400;2023-04-16T06:57:56;39.80;;;16.20;;
79712;SDS011;69206;51.420;5.400;2023-04-16T07:00:21;29.90;;;15.13;;
79712;SDS011;69206;51.420;5.400;2023-04-16T07:02:47;37.07;;;15.10;;
79712;SDS011;69206;51.420;5.400;2023-04-16T07:05:12;35.57;;;15.90;;
79712;SDS011;69206;51.420;5.400;2023-04-16T07:07:39;39.23;;;15.63;;
79712;SDS011;69206;51.420;5.400;2023-04-16T07:10:04;40.77;;;15.90;;
79712;SDS011;69206;51.420;5.400;2023-04-16T07:12:31;33.30;;;16.13;;
79712;SDS011;69206;51.420;5.400;2023-04-16T07:14:58;35.87;;;15.77;;
79712;SDS011;69206;51.420;5.400;2023-04-16T07:17:23;43.60;;;17.57;;
79712;SDS011;69206;51.420;5.400;2023-04-16T07:19:50;36.80;;;16.30;;
79712;SDS011;69206;51.420;5.400;2023-04-16T07:22:15;38.47;;;14.83;;
79712;SDS011;69206;51.420;5.400;2023-04-16T07:24:41;33.93;;;16.33;;
79712;SDS011;69206;51.420;5.400;2023-04-16T07:27:06;46.90;;;15.77;;
79712;SDS011;69206;51.420;5.400;2023-04-16T07:29:31;38.70;;;15.47;;
79712;SDS011;69206;51.420;5.400;2023-04-16T07:31:57;33.17;;;15.63;;
79712;SDS011;69206;51.420;5.400;2023-04-16T07:34:22;38.23;;;16.30;;
79712;SDS011;69206;51.420;5.400;2023-04-16T07:36:47;45.87;;;15.73;;
79712;SDS011;69206;51.420;5.400;2023-04-16T07:39:13;32.13;;;15.53;;
79712;SDS011;69206;51.420;5.400;2023-04-16T07:41:38;36.53;;;15.03;;
79712;SDS011;69206;51.420;5.400;2023-04-16T07:44:05;40.30;;;17.07;;
79712;SDS011;69206;51.420;5.400;2023-04-16T07:46:30;40.27;;;15.43;;
79712;SDS011;69206;51.420;5.400;2023-04-16T07:48:55;38.23;;;16.37;;
79712;SDS011;69206;51.420;5.400;2023-04-16T07:51:21;38.93;;;15.90;;
79712;SDS011;69206;51.420;5.400;2023-04-16T07:53:46;35.50;;;15.30;;
79712;SDS011;69206;51.420;5.400;2023-04-16T07:56:12;44.13;;;17.13;;
79712;SDS011;69206;51.420;5.400;2023-04-16T07:58:37;43.47;;;16.77;;
79712;SDS011;69206;51.420;5.400;2023-04-16T08:01:03;44.27;;;16.70;;
79712;SDS011;69206;51.420;5.400;2023-04-16T08:03:28;37.65;;;16.05;;
79712;SDS011;69206;51.420;5.400;2023-04-16T08:05:54;39.37;;;16.60;;
79712;SDS011;69206;51.420;5.400;2023-04-16T08:08:19;38.80;;;15.88;;
79712;SDS011;69206;51.420;5.400;2023-04-16T08:10:44;48.13;;;17.63;;
79712;SDS011;69206;51.420;5.400;2023-04-16T08:13:10;40.63;;;16.42;;
79712;SDS011;69206;51.420;5.400;2023-04-16T08:15:35;50.30;;;18.00;;
79712;SDS011;69206;51.420;5.400;2023-04-16T08:18:01;50.20;;;17.13;;
79712;SDS011;69206;51.420;5.400;2023-04-16T08:20:26;50.77;;;17.47;;
79712;SDS011;69206;51.420;5.400;2023-04-16T08:22:52;47.70;;;17.10;;
79712;SDS011;69206;51.420;5.400;2023-04-16T08:25:18;49.40;;;17.85;;
79712;SDS011;69206;51.420;5.400;2023-04-16T08:27:44;39.33;;;18.40;;
79712;SDS011;69206;51.420;5.400;2023-04-16T08:30:10;41.17;;;16.83;;
79712;SDS011;69206;51.420;5.400;2023-04-16T08:32:35;48.30;;;17.40;;
79712;SDS011;69206;51.420;5.400;2023-04-16T08:35:01;53.23;;;17.60;;
79712;SDS011;69206;51.420;5.400;2023-04-16T08:37:26;50.17;;;16.92;;
79712;SDS011;69206;51.420;5.400;2023-04-16T08:39:51;35.47;;;16.30;;
79712;SDS011;69206;51.420;5.400;2023-04-16T08:42:22;44.42;;;17.23;;
79712;SDS011;69206;51.420;5.400;2023-04-16T08:44:56;45.30;;;17.15;;
79712;SDS011;69206;51.420;5.400;2023-04-16T08:47:30;44.17;;;16.67;;
79712;SDS011;69206;51.420;5.400;2023-04-16T08:49:58;37.42;;;16.70;;
79712;SDS011;69206;51.420;5.400;2023-04-16T08:52:25;60.42;;;18.42;;
79712;SDS011;69206;51.420;5.400;2023-04-16T08:57:29;54.03;;;17.27;;
79712;SDS011;69206;51.420;5.400;2023-04-16T09:00:01;50.40;;;19.42;;
79712;SDS011;69206;51.420;5.400;2023-04-16T09:02:26;47.47;;;17.80;;
79712;SDS011;69206;51.420;5.400;2023-04-16T09:04:52;44.10;;;16.63;;
79712;SDS011;69206;51.420;5.400;2023-04-16T09:07:18;41.50;;;17.70;;
79712;SDS011;69206;51.420;5.400;2023-04-16T09:09:45;47.33;;;17.20;;
79712;SDS011;69206;51.420;5.400;2023-04-16T09:12:13;48.63;;;18.50;;
79712;SDS011;69206;51.420;5.400;2023-04-16T09:14:39;44.92;;;16.63;;
79712;SDS011;69206;51.420;5.400;2023-04-16T09:17:06;44.05;;;17.73;;
79712;SDS011;69206;51.420;5.400;2023-04-16T09:19:33;45.83;;;17.77;;
79712;SDS011;69206;51.420;5.400;2023-04-16T09:21:59;44.00;;;17.17;;
79712;SDS011;69206;51.420;5.400;2023-04-16T09:24:25;47.60;;;18.52;;
79712;SDS011;69206;51.420;5.400;2023-04-16T09:26:50;46.17;;;18.65;;
79712;SDS011;69206;51.420;5.400;2023-04-16T09:29:35;48.55;;;17.95;;
79712;SDS011;69206;51.420;5.400;2023-04-16T09:32:03;45.67;;;17.65;;
79712;SDS011;69206;51.420;5.400;2023-04-16T09:34:30;47.22;;;19.00;;
79712;SDS011;69206;51.420;5.400;2023-04-16T09:37:18;48.00;;;18.10;;
79712;SDS011;69206;51.420;5.400;2023-04-16T09:39:43;45.92;;;19.23;;
79712;SDS011;69206;51.420;5.400;2023-04-16T09:42:10;41.03;;;16.83;;
79712;SDS011;69206;51.420;5.400;2023-04-16T09:44:36;39.53;;;17.00;;
79712;SDS011;69206;51.420;5.400;2023-04-16T09:47:06;43.45;;;17.73;;
79712;SDS011;69206;51.420;5.400;2023-04-16T09:49:33;37.53;;;16.20;;
79712;SDS011;69206;51.420;5.400;2023-04-16T09:52:00;41.08;;;17.73;;
79712;SDS011;69206;51.420;5.400;2023-04-16T09:54:26;41.40;;;16.60;;
79712;SDS011;69206;51.420;5.400;2023-04-16T09:56:54;45.63;;;16.13;;
79712;SDS011;69206;51.420;5.400;2023-04-16T09:59:21;51.33;;;18.20;;
79712;SDS011;69206;51.420;5.400;2023-04-16T10:01:48;46.85;;;16.65;;
79712;SDS011;69206;51.420;5.400;2023-04-16T10:04:14;39.67;;;17.20;;
79712;SDS011;69206;51.420;5.400;2023-04-16T10:06:40;33.95;;;15.00;;
79712;SDS011;69206;51.420;5.400;2023-04-16T10:09:06;43.33;;;17.52;;
79712;SDS011;69206;51.420;5.400;2023-04-16T10:11:33;42.95;;;17.73;;
79712;SDS011;69206;51.420;5.400;2023-04-16T10:13:58;46.75;;;17.17;;
79712;SDS011;69206;51.420;5.400;2023-04-16T10:16:24;42.47;;;17.55;;
79712;SDS011;69206;51.420;5.400;2023-04-16T10:18:50;43.75;;;17.33;;
79712;SDS011;69206;51.420;5.400;2023-04-16T10:21:17;47.92;;;17.20;;
79712;SDS011;69206;51.420;5.400;2023-04-16T10:23:43;33.88;;;17.05;;
79712;SDS011;69206;51.420;5.400;2023-04-16T10:26:09;49.35;;;16.73;;
79712;SDS011;69206;51.420;5.400;2023-04-16T10:28:34;40.65;;;16.55;;
79712;SDS011;69206;51.420;5.400;2023-04-16T10:31:02;39.08;;;16.08;;
79712;SDS011;69206;51.420;5.400;2023-04-16T10:33:31;45.75;;;17.35;;
79712;SDS011;69206;51.420;5.400;2023-04-16T10:36:08;44.75;;;17.38;;
79712;SDS011;69206;51.420;5.400;2023-04-16T10:38:34;40.05;;;17.00;;
79712;SDS011;69206;51.420;5.400;2023-04-16T10:41:03;34.72;;;16.63;;
79712;SDS011;69206;51.420;5.400;2023-04-16T10:43:30;41.70;;;17.80;;
79712;SDS011;69206;51.420;5.400;2023-04-16T10:46:16;38.15;;;17.30;;
79712;SDS011;69206;51.420;5.400;2023-04-16T10:48:52;48.08;;;17.30;;
79712;SDS011;69206;51.420;5.400;2023-04-16T10:51:28;46.40;;;18.00;;
79712;SDS011;69206;51.420;5.400;2023-04-16T10:56:33;38.08;;;16.42;;
79712;SDS011;69206;51.420;5.400;2023-04-16T10:59:00;37.53;;;16.48;;
79712;SDS011;69206;51.420;5.400;2023-04-16T11:01:35;44.35;;;16.77;;
79712;SDS011;69206;51.420;5.400;2023-04-16T11:04:47;45.55;;;16.75;;
79712;SDS011;69206;51.420;5.400;2023-04-16T11:12:12;44.60;;;18.33;;
79712;SDS011;69206;51.420;5.400;2023-04-16T11:14:42;39.63;;;17.52;;
79712;SDS011;69206;51.420;5.400;2023-04-16T11:17:09;45.40;;;18.27;;
79712;SDS011;69206;51.420;5.400;2023-04-16T11:19:35;39.88;;;18.45;;
79712;SDS011;69206;51.420;5.400;2023-04-16T11:22:02;44.35;;;19.25;;
79712;SDS011;69206;51.420;5.400;2023-04-16T11:24:28;45.00;;;18.85;;
79712;SDS011;69206;51.420;5.400;2023-04-16T11:26:54;46.28;;;19.65;;
79712;SDS011;69206;51.420;5.400;2023-04-16T11:29:20;48.47;;;20.70;;
79712;SDS011;69206;51.420;5.400;2023-04-16T11:31:49;54.33;;;19.45;;
79712;SDS011;69206;51.420;5.400;2023-04-16T11:34:18;46.75;;;18.60;;
79712;SDS011;69206;51.420;5.400;2023-04-16T11:36:48;47.33;;;19.88;;
79712;SDS011;69206;51.420;5.400;2023-04-16T11:39:15;50.42;;;18.90;;
79712;SDS011;69206;51.420;5.400;2023-04-16T11:41:41;41.33;;;19.55;;
79712;SDS011;69206;51.420;5.400;2023-04-16T11:44:21;42.92;;;19.33;;
79712;SDS011;69206;51.420;5.400;2023-04-16T11:46:48;42.20;;;18.20;;
79712;SDS011;69206;51.420;5.400;2023-04-16T11:49:14;45.65;;;18.70;;
79712;SDS011;69206;51.420;5.400;2023-04-16T11:51:43;39.83;;;18.55;;
79712;SDS011;69206;51.420;5.400;2023-04-16T11:54:17;47.05;;;19.60;;
79712;SDS011;69206;51.420;5.400;2023-04-16T11:56:44;40.05;;;18.40;;
79712;SDS011;69206;51.420;5.400;2023-04-16T11:59:18;39.35;;;18.83;;
79712;SDS011;69206;51.420;5.400;2023-04-16T12:01:46;39.65;;;17.90;;
79712;SDS011;69206;51.420;5.400;2023-04-16T12:04:13;42.00;;;19.08;;
79712;SDS011;69206;51.420;5.400;2023-04-16T12:06:40;32.85;;;18.48;;
79712;SDS011;69206;51.420;5.400;2023-04-16T12:09:25;34.58;;;17.98;;
79712;SDS011;69206;51.420;5.400;2023-04-16T12:11:51;37.97;;;17.27;;
79712;SDS011;69206;51.420;5.400;2023-04-16T12:14:17;39.85;;;17.58;;
79712;SDS011;69206;51.420;5.400;2023-04-16T12:16:43;41.00;;;18.73;;
79712;SDS011;69206;51.420;5.400;2023-04-16T12:19:09;40.72;;;18.02;;
79712;SDS011;69206;51.420;5.400;2023-04-16T12:21:40;34.67;;;17.42;;
79712;SDS011;69206;51.420;5.400;2023-04-16T12:24:07;38.08;;;18.35;;
79712;SDS011;69206;51.420;5.400;2023-04-16T12:26:36;38.17;;;17.85;;
79712;SDS011;69206;51.420;5.400;2023-04-16T12:29:15;31.27;;;15.82;;
79712;SDS011;69206;51.420;5.400;2023-04-16T12:31:45;33.80;;;17.40;;
79712;SDS011;69206;51.420;5.400;2023-04-16T12:34:13;34.70;;;17.33;;
79712;SDS011;69206;51.420;5.400;2023-04-16T12:36:40;39.25;;;16.15;;
79712;SDS011;69206;51.420;5.400;2023-04-16T12:39:06;33.92;;;17.13;;
79712;SDS011;69206;51.420;5.400;2023-04-16T12:41:31;37.88;;;16.65;;
79712;SDS011;69206;51.420;5.400;2023-04-16T12:44:18;36.83;;;16.30;;
79712;SDS011;69206;51.420;5.400;2023-04-16T12:46:43;32.38;;;17.13;;
79712;SDS011;69206;51.420;5.400;2023-04-16T12:49:09;35.38;;;16.83;;
79712;SDS011;69206;51.420;5.400;2023-04-16T12:51:35;30.88;;;15.40;;
79712;SDS011;69206;51.420;5.400;2023-04-16T12:54:02;32.80;;;15.55;;
79712;SDS011;69206;51.420;5.400;2023-04-16T12:56:29;31.27;;;16.27;;
79712;SDS011;69206;51.420;5.400;2023-04-16T12:58:54;31.45;;;15.07;;
79712;SDS011;69206;51.420;5.400;2023-04-16T13:01:20;32.25;;;15.57;;
79712;SDS011;69206;51.420;5.400;2023-04-16T13:03:46;27.20;;;15.00;;
79712;SDS011;69206;51.420;5.400;2023-04-16T13:06:12;36.15;;;15.43;;
79712;SDS011;69206;51.420;5.400;2023-04-16T13:08:39;23.80;;;13.38;;
79712;SDS011;69206;51.420;5.400;2023-04-16T13:11:05;25.92;;;14.35;;
79712;SDS011;69206;51.420;5.400;2023-04-16T13:13:31;29.35;;;14.82;;
79712;SDS011;69206;51.420;5.400;2023-04-16T13:15:57;27.83;;;14.60;;
79712;SDS011;69206;51.420;5.400;2023-04-16T13:18:23;30.33;;;16.02;;
79712;SDS011;69206;51.420;5.400;2023-04-16T13:20:50;33.55;;;15.32;;
79712;SDS011;69206;51.420;5.400;2023-04-16T13:23:15;29.75;;;14.90;;
79712;SDS011;69206;51.420;5.400;2023-04-16T13:25:41;29.35;;;14.20;;
79712;SDS011;69206;51.420;5.400;2023-04-16T13:28:06;31.00;;;15.77;;
79712;SDS011;69206;51.420;5.400;2023-04-16T13:30:32;31.65;;;13.93;;
79712;SDS011;69206;51.420;5.400;2023-04-16T13:32:58;28.73;;;14.05;;
79712;SDS011;69206;51.420;5.400;2023-04-16T13:35:24;28.10;;;13.63;;
79712;SDS011;69206;51.420;5.400;2023-04-16T13:37:50;25.67;;;13.80;;
79712;SDS011;69206;51.420;5.400;2023-04-16T13:40:15;32.28;;;15.05;;
79712;SDS011;69206;51.420;5.400;2023-04-16T13:42:41;24.33;;;13.30;;
79712;SDS011;69206;51.420;5.400;2023-04-16T13:45:06;24.88;;;13.52;;
79712;SDS011;69206;51.420;5.400;2023-04-16T13:47:33;30.25;;;15.00;;
79712;SDS011;69206;51.420;5.400;2023-04-16T13:49:59;28.92;;;13.68;;
79712;SDS011;69206;51.420;5.400;2023-04-16T13:52:24;28.02;;;13.82;;
79712;SDS011;69206;51.420;5.400;2023-04-16T13:54:50;29.55;;;14.23;;
79712;SDS011;69206;51.420;5.400;2023-04-16T13:57:15;27.33;;;14.30;;
79712;SDS011;69206;51.420;5.400;2023-04-16T13:59:42;33.25;;;15.13;;
79712;SDS011;69206;51.420;5.400;2023-04-16T14:02:08;27.02;;;14.55;;
79712;SDS011;69206;51.420;5.400;2023-04-16T14:04:34;32.78;;;15.25;;
79712;SDS011;69206;51.420;5.400;2023-04-16T14:07:00;29.08;;;14.00;;
79712;SDS011;69206;51.420;5.400;2023-04-16T14:09:25;27.75;;;15.40;;
79712;SDS011;69206;51.420;5.400;2023-04-16T14:11:51;25.27;;;13.57;;
79712;SDS011;69206;51.420;5.400;2023-04-16T14:14:16;25.63;;;13.48;;
79712;SDS011;69206;51.420;5.400;2023-04-16T14:16:42;28.58;;;14.27;;
79712;SDS011;69206;51.420;5.400;2023-04-16T14:19:07;27.58;;;14.00;;
79712;SDS011;69206;51.420;5.400;2023-04-16T14:21:33;27.90;;;13.90;;
79712;SDS011;69206;51.420;5.400;2023-04-16T14:23:58;24.85;;;12.75;;
79712;SDS011;69206;51.420;5.400;2023-04-16T14:26:24;22.80;;;13.65;;
79712;SDS011;69206;51.420;5.400;2023-04-16T14:28:49;25.77;;;13.02;;
79712;SDS011;69206;51.420;5.400;2023-04-16T14:31:15;30.55;;;13.77;;
79712;SDS011;69206;51.420;5.400;2023-04-16T14:33:42;25.80;;;13.98;;